Ljuta — J8B4127 — position and weather

sailwx.info

Track history (hours):
 
Tides and Currents Weather Stations Pressure Air Temp Water Temp Dewpoint Dewpoint Depression Visibility Wind Speed Wind Dir Waves Ship Positions

Ljuta

Last reported at 2016-May-04 08:26 UTC. Time now 2016-May-04 11:46 UTC.
Position N 37°33' W 009°47'.

Length 177 m; draft 9.3 m.

Type: Cargo ship. MMSI: 377715000.

Date/timePositionNaut miles runAvg speedWind from/ knotsBaromVisibWave heightAir tempDewpointWater temp
2016-May-04 08:26N 37°33' W 009°47'1412.3
2016-May-04 07:19N 37°46' W 009°51'1012.5
2016-May-04 06:33N 37°56' W 009°54'1212.5
2016-May-04 05:33N 38°08' W 009°57'1212.3
2016-May-04 04:33N 38°20' W 009°60'1312.8
2016-May-04 03:33N 38°32' W 010°03'1312.6
2016-May-04 02:33N 38°45' W 010°06'1312.9
2016-May-04 01:33N 38°58' W 010°06'1312.7
2016-May-04 00:33N 39°10' W 010°06'  
2016-May-01 16:23N 49°41' W 003°44'1011.6
2016-May-01 15:33N 49°45' W 003°31'1111.3
2016-May-01 14:33N 49°51' W 003°16'1111.2
2016-May-01 13:33N 49°56' W 003°01'1111.2
2016-May-01 12:32N 50°00' W 002°44'6713.4
2016-May-01 07:33N 49°47' W 001°03'1414.1
2016-May-01 06:33N 49°40' W 000°43'1313.1
2016-May-01 05:33N 49°35' W 000°25'1212.3
2016-May-01 04:33N 49°30' W 000°08'1110.5
2016-May-01 03:33N 49°26' E 000°08'10 9.9
2016-May-01 02:33N 49°27' E 000°23'7 6.7
2016-May-01 01:33N 49°27' E 000°33'10 5.2
2016-Apr-30 23:32N 49°27' E 000°49'  
2016-Apr-28 01:11N 49°25' E 000°52'5 7.1
2016-Apr-28 00:34N 49°29' E 000°48'8 7.8
2016-Apr-27 23:33N 49°26' E 000°37'8 7.8
2016-Apr-27 22:33N 49°27' E 000°25'1313.1
2016-Apr-27 21:33N 49°26' E 000°05'8 7.9
2016-Apr-27 20:33N 49°29' W 000°06'2 2.1
2016-Apr-27 19:31N 49°29' W 000°09'0 0.0
2016-Apr-27 18:31N 49°29' W 000°09'0 0.1
2016-Apr-27 17:31N 49°28' W 000°09'0 0.0
2016-Apr-27 16:31N 49°28' W 000°09'0 0.0
2016-Apr-27 15:31N 49°28' W 000°09'0 0.1
2016-Apr-27 14:31N 49°28' W 000°09'0 0.0
2016-Apr-27 13:31N 49°28' W 000°09'0 0.0
2016-Apr-27 12:31N 49°29' W 000°09'0 0.0
2016-Apr-27 11:31N 49°29' W 000°09'0 0.0
2016-Apr-27 10:31N 49°29' W 000°09'0 0.0
2016-Apr-27 09:31N 49°28' W 000°09'0 0.1
2016-Apr-27 08:31N 49°28' W 000°09'0 0.0
2016-Apr-27 07:31N 49°28' W 000°09'0 0.0
2016-Apr-27 06:31N 49°28' W 000°09'0 0.0
2016-Apr-27 05:31N 49°28' W 000°09'0 0.0
2016-Apr-27 04:31N 49°28' W 000°09'0 0.0
2016-Apr-27 03:31N 49°28' W 000°09'0 0.1
2016-Apr-27 02:31N 49°28' W 000°09'0 0.0
2016-Apr-27 01:31N 49°29' W 000°09'0 0.0
2016-Apr-27 00:31N 49°29' W 000°09'0 0.0
2016-Apr-26 23:31N 49°29' W 000°09'0 0.0
2016-Apr-26 22:31N 49°29' W 000°09'0 0.0
2016-Apr-26 21:31N 49°28' W 000°09'0 0.0
2016-Apr-26 20:31N 49°28' W 000°09'0 0.0
2016-Apr-26 19:31N 49°28' W 000°09'0 0.0
2016-Apr-26 18:31N 49°28' W 000°09'0 0.0
2016-Apr-26 17:31N 49°28' W 000°09'0 0.0
2016-Apr-26 16:31N 49°28' W 000°09'0 0.0
2016-Apr-26 15:31N 49°28' W 000°09'0 0.0
2016-Apr-26 14:31N 49°28' W 000°09'0 0.0
2016-Apr-26 13:31N 49°28' W 000°09'0 0.0
2016-Apr-26 12:31N 49°28' W 000°09'0 0.0
2016-Apr-26 11:31N 49°29' W 000°09'0 0.0
2016-Apr-26 10:31N 49°29' W 000°09'0 0.1
2016-Apr-26 09:31N 49°28' W 000°09'0 0.0
2016-Apr-26 08:31N 49°28' W 000°09'0 0.0
2016-Apr-26 07:31N 49°28' W 000°09'0 0.0
2016-Apr-26 06:31N 49°28' W 000°09'0 0.1
2016-Apr-26 05:31N 49°28' W 000°09'0 0.0
2016-Apr-26 04:28N 49°28' W 000°09'0 0.0
2016-Apr-26 03:31N 49°28' W 000°09'0 0.1
2016-Apr-26 02:31N 49°28' W 000°09'0 0.0
2016-Apr-26 01:31N 49°28' W 000°09'0 0.0
2016-Apr-26 00:31N 49°28' W 000°09'0 0.0
2016-Apr-25 23:31N 49°29' W 000°09'0 0.0
2016-Apr-25 22:31N 49°29' W 000°09'0 0.0
2016-Apr-25 21:31N 49°29' W 000°09'0 0.0
2016-Apr-25 20:31N 49°29' W 000°09'0 0.0
2016-Apr-25 19:31N 49°29' W 000°09'0 0.0
2016-Apr-25 18:31N 49°29' W 000°09'0 0.0
2016-Apr-25 17:31N 49°29' W 000°09'0 0.0
2016-Apr-25 16:31N 49°29' W 000°09'0 0.0
2016-Apr-25 15:31N 49°29' W 000°09'0 0.1
2016-Apr-25 14:31N 49°29' W 000°09'0 0.1
2016-Apr-25 13:31N 49°29' W 000°09'0 0.1
2016-Apr-25 12:31N 49°29' W 000°09'0 0.1
2016-Apr-25 11:31N 49°29' W 000°09'0 0.0
2016-Apr-25 10:31N 49°29' W 000°09'0 0.1
2016-Apr-25 09:31N 49°29' W 000°09'0 0.0
2016-Apr-25 08:31N 49°29' W 000°09'0 0.0
2016-Apr-25 07:31N 49°29' W 000°09'0 0.0
2016-Apr-25 06:31N 49°29' W 000°09'0 0.1
2016-Apr-25 05:31N 49°28' W 000°09'0 0.0
2016-Apr-25 04:31N 49°28' W 000°09'0 0.0
2016-Apr-25 03:31N 49°28' W 000°09'0 0.0
2016-Apr-25 02:31N 49°28' W 000°09'0 0.0
2016-Apr-25 01:31N 49°29' W 000°09'0 0.0
2016-Apr-25 00:31N 49°29' W 000°09'0 0.0
2016-Apr-24 23:31N 49°29' W 000°09'0 0.0
2016-Apr-24 22:31N 49°29' W 000°09'0 0.0
2016-Apr-24 21:31N 49°29' W 000°09'0 0.0
2016-Apr-24 20:31N 49°28' W 000°09'0 0.0
2016-Apr-24 19:31N 49°28' W 000°09'0 0.1
2016-Apr-24 18:31N 49°28' W 000°09'0 0.1
2016-Apr-24 17:31N 49°28' W 000°09'0 0.0
2016-Apr-24 16:31N 49°28' W 000°09'0 0.0
2016-Apr-24 15:31N 49°28' W 000°09'0 0.0
2016-Apr-24 14:31N 49°28' W 000°09'0 0.0
2016-Apr-24 13:28N 49°28' W 000°09'0 0.0
2016-Apr-24 12:31N 49°28' W 000°09'0 0.0
2016-Apr-24 11:31N 49°28' W 000°09'0 0.1
2016-Apr-24 10:31N 49°28' W 000°09'0 0.0
2016-Apr-24 09:31N 49°28' W 000°09'0 0.0
2016-Apr-24 08:31N 49°28' W 000°09'  
Track history (hours):
 
Tides and Currents Weather Stations Pressure Air Temp Water Temp Dewpoint Dewpoint Depression Visibility Wind Speed Wind Dir Waves Ship Positions

Ljuta

Last reported at 2016-May-04 08:26 UTC. Time now 2016-May-04 11:46 UTC.
Position N 37°33' W 009°47'.

Length 177 m; draft 9.3 m.

Type: Cargo ship. MMSI: 377715000.

Date/timePositionNaut miles runAvg speedWind from/ knotsBaromVisibWave heightAir tempDewpointWater temp
2016-May-04 08:26N 37°33' W 009°47'1412.3
2016-May-04 07:19N 37°46' W 009°51'1012.5
2016-May-04 06:33N 37°56' W 009°54'1212.5
2016-May-04 05:33N 38°08' W 009°57'1212.3
2016-May-04 04:33N 38°20' W 009°60'1312.8
2016-May-04 03:33N 38°32' W 010°03'1312.6
2016-May-04 02:33N 38°45' W 010°06'1312.9
2016-May-04 01:33N 38°58' W 010°06'1312.7
2016-May-04 00:33N 39°10' W 010°06'  
2016-May-01 16:23N 49°41' W 003°44'1011.6
2016-May-01 15:33N 49°45' W 003°31'1111.3
2016-May-01 14:33N 49°51' W 003°16'1111.2
2016-May-01 13:33N 49°56' W 003°01'1111.2
2016-May-01 12:32N 50°00' W 002°44'6713.4
2016-May-01 07:33N 49°47' W 001°03'1414.1
2016-May-01 06:33N 49°40' W 000°43'1313.1
2016-May-01 05:33N 49°35' W 000°25'1212.3
2016-May-01 04:33N 49°30' W 000°08'1110.5
2016-May-01 03:33N 49°26' E 000°08'10 9.9
2016-May-01 02:33N 49°27' E 000°23'7 6.7
2016-May-01 01:33N 49°27' E 000°33'10 5.2
2016-Apr-30 23:32N 49°27' E 000°49'  
2016-Apr-28 01:11N 49°25' E 000°52'5 7.1
2016-Apr-28 00:34N 49°29' E 000°48'8 7.8
2016-Apr-27 23:33N 49°26' E 000°37'8 7.8
2016-Apr-27 22:33N 49°27' E 000°25'1313.1
2016-Apr-27 21:33N 49°26' E 000°05'8 7.9
2016-Apr-27 20:33N 49°29' W 000°06'2 2.1
2016-Apr-27 19:31N 49°29' W 000°09'0 0.0
2016-Apr-27 18:31N 49°29' W 000°09'0 0.1
2016-Apr-27 17:31N 49°28' W 000°09'0 0.0
2016-Apr-27 16:31N 49°28' W 000°09'0 0.0
2016-Apr-27 15:31N 49°28' W 000°09'0 0.1
2016-Apr-27 14:31N 49°28' W 000°09'0 0.0
2016-Apr-27 13:31N 49°28' W 000°09'0 0.0
2016-Apr-27 12:31N 49°29' W 000°09'0 0.0
2016-Apr-27 11:31N 49°29' W 000°09'0 0.0
2016-Apr-27 10:31N 49°29' W 000°09'0 0.0
2016-Apr-27 09:31N 49°28' W 000°09'0 0.1
2016-Apr-27 08:31N 49°28' W 000°09'0 0.0
2016-Apr-27 07:31N 49°28' W 000°09'0 0.0
2016-Apr-27 06:31N 49°28' W 000°09'0 0.0
2016-Apr-27 05:31N 49°28' W 000°09'0 0.0
2016-Apr-27 04:31N 49°28' W 000°09'0 0.0
2016-Apr-27 03:31N 49°28' W 000°09'0 0.1
2016-Apr-27 02:31N 49°28' W 000°09'0 0.0
2016-Apr-27 01:31N 49°29' W 000°09'0 0.0
2016-Apr-27 00:31N 49°29' W 000°09'0 0.0
2016-Apr-26 23:31N 49°29' W 000°09'0 0.0
2016-Apr-26 22:31N 49°29' W 000°09'0 0.0
2016-Apr-26 21:31N 49°28' W 000°09'0 0.0
2016-Apr-26 20:31N 49°28' W 000°09'0 0.0
2016-Apr-26 19:31N 49°28' W 000°09'0 0.0
2016-Apr-26 18:31N 49°28' W 000°09'0 0.0
2016-Apr-26 17:31N 49°28' W 000°09'0 0.0
2016-Apr-26 16:31N 49°28' W 000°09'0 0.0
2016-Apr-26 15:31N 49°28' W 000°09'0 0.0
2016-Apr-26 14:31N 49°28' W 000°09'0 0.0
2016-Apr-26 13:31N 49°28' W 000°09'0 0.0
2016-Apr-26 12:31N 49°28' W 000°09'0 0.0
2016-Apr-26 11:31N 49°29' W 000°09'0 0.0
2016-Apr-26 10:31N 49°29' W 000°09'0 0.1
2016-Apr-26 09:31N 49°28' W 000°09'0 0.0
2016-Apr-26 08:31N 49°28' W 000°09'0 0.0
2016-Apr-26 07:31N 49°28' W 000°09'0 0.0
2016-Apr-26 06:31N 49°28' W 000°09'0 0.1
2016-Apr-26 05:31N 49°28' W 000°09'0 0.0
2016-Apr-26 04:28N 49°28' W 000°09'0 0.0
2016-Apr-26 03:31N 49°28' W 000°09'0 0.1
2016-Apr-26 02:31N 49°28' W 000°09'0 0.0
2016-Apr-26 01:31N 49°28' W 000°09'0 0.0
2016-Apr-26 00:31N 49°28' W 000°09'0 0.0
2016-Apr-25 23:31N 49°29' W 000°09'0 0.0
2016-Apr-25 22:31N 49°29' W 000°09'0 0.0
2016-Apr-25 21:31N 49°29' W 000°09'0 0.0
2016-Apr-25 20:31N 49°29' W 000°09'0 0.0
2016-Apr-25 19:31N 49°29' W 000°09'0 0.0
2016-Apr-25 18:31N 49°29' W 000°09'0 0.0
2016-Apr-25 17:31N 49°29' W 000°09'0 0.0
2016-Apr-25 16:31N 49°29' W 000°09'0 0.0
2016-Apr-25 15:31N 49°29' W 000°09'0 0.1
2016-Apr-25 14:31N 49°29' W 000°09'0 0.1
2016-Apr-25 13:31N 49°29' W 000°09'0 0.1
2016-Apr-25 12:31N 49°29' W 000°09'0 0.1
2016-Apr-25 11:31N 49°29' W 000°09'0 0.0
2016-Apr-25 10:31N 49°29' W 000°09'0 0.1
2016-Apr-25 09:31N 49°29' W 000°09'0 0.0
2016-Apr-25 08:31N 49°29' W 000°09'0 0.0
2016-Apr-25 07:31N 49°29' W 000°09'0 0.0
2016-Apr-25 06:31N 49°29' W 000°09'0 0.1
2016-Apr-25 05:31N 49°28' W 000°09'0 0.0
2016-Apr-25 04:31N 49°28' W 000°09'0 0.0
2016-Apr-25 03:31N 49°28' W 000°09'0 0.0
2016-Apr-25 02:31N 49°28' W 000°09'0 0.0
2016-Apr-25 01:31N 49°29' W 000°09'0 0.0
2016-Apr-25 00:31N 49°29' W 000°09'0 0.0
2016-Apr-24 23:31N 49°29' W 000°09'0 0.0
2016-Apr-24 22:31N 49°29' W 000°09'0 0.0
2016-Apr-24 21:31N 49°29' W 000°09'0 0.0
2016-Apr-24 20:31N 49°28' W 000°09'0 0.0
2016-Apr-24 19:31N 49°28' W 000°09'0 0.1
2016-Apr-24 18:31N 49°28' W 000°09'0 0.1
2016-Apr-24 17:31N 49°28' W 000°09'0 0.0
2016-Apr-24 16:31N 49°28' W 000°09'0 0.0
2016-Apr-24 15:31N 49°28' W 000°09'0 0.0
2016-Apr-24 14:31N 49°28' W 000°09'0 0.0
2016-Apr-24 13:28N 49°28' W 000°09'0 0.0
2016-Apr-24 12:31N 49°28' W 000°09'0 0.0
2016-Apr-24 11:31N 49°28' W 000°09'0 0.1
2016-Apr-24 10:31N 49°28' W 000°09'0 0.0
2016-Apr-24 09:31N 49°28' W 000°09'0 0.0
2016-Apr-24 08:31N 49°28' W 000°09'  

Dump ship's entire track history